createdAt,value
2023-11-30T00:01:56.242Z,99674.75
2023-11-30T00:04:26.451Z,99673.53
2023-11-30T00:07:01.268Z,99673.63
2023-11-30T00:09:35.485Z,99684.22
2023-11-30T00:12:08.047Z,99686.00
2023-11-30T00:14:44.181Z,99677.69
2023-11-30T00:17:19.896Z,99669.25
2023-11-30T00:19:58.499Z,99676.41
2023-11-30T00:22:31.775Z,99684.44
2023-11-30T00:25:08.458Z,99682.03
2023-11-30T00:27:41.697Z,99683.91
2023-11-30T00:30:16.412Z,99694.50
2023-11-30T00:32:52.768Z,99692.94
2023-11-30T00:35:27.132Z,99697.41
2023-11-30T00:37:57.998Z,99697.72
2023-11-30T00:40:45.247Z,99697.00
2023-11-30T00:43:15.499Z,99706.75
2023-11-30T00:46:00.501Z,99709.47
2023-11-30T00:48:39.362Z,99709.84
2023-11-30T00:51:12.098Z,99706.63
2023-11-30T00:53:42.645Z,99709.41
2023-11-30T00:56:15.811Z,99709.41
2023-11-30T00:58:45.846Z,99704.22
2023-11-30T01:01:15.944Z,99712.84
2023-11-30T01:03:46.099Z,99718.75
2023-11-30T01:06:16.299Z,99716.06
2023-11-30T01:08:46.347Z,99722.81
2023-11-30T01:11:19.018Z,99718.66
2023-11-30T01:13:49.213Z,99720.41
2023-11-30T01:16:19.386Z,99729.34
2023-11-30T01:18:49.485Z,99727.88
2023-11-30T01:21:19.668Z,99727.88
2023-11-30T01:23:49.972Z,99736.59
2023-11-30T01:26:23.657Z,99740.13
2023-11-30T01:28:53.788Z,99729.84
2023-11-30T01:31:23.819Z,99725.59
2023-11-30T01:33:54.034Z,99736.91
2023-11-30T01:36:24.135Z,99743.03
2023-11-30T01:38:54.292Z,99741.47
2023-11-30T01:41:27.278Z,99738.97
2023-11-30T01:43:57.425Z,99746.84
2023-11-30T01:46:27.633Z,99744.25
2023-11-30T01:48:57.823Z,99744.25
2023-11-30T01:51:28.956Z,99746.13
2023-11-30T01:54:00.799Z,99749.66
2023-11-30T01:56:34.806Z,99756.59
2023-11-30T01:59:06.296Z,99758.25
2023-11-30T02:01:36.783Z,99761.69
2023-11-30T02:04:14.489Z,99760.13
2023-11-30T02:06:47.117Z,99767.72
2023-11-30T02:09:17.706Z,99768.53
2023-11-30T02:11:50.732Z,99764.28
2023-11-30T02:14:21.377Z,99759.19
2023-11-30T02:19:35.624Z,99759.84
2023-11-30T02:22:09.158Z,99757.34
2023-11-30T02:24:39.469Z,99754.84
2023-11-30T02:27:09.671Z,99749.44
2023-11-30T02:29:39.795Z,99751.94
2023-11-30T02:32:10.175Z,99762.13
2023-11-30T02:34:40.511Z,99750.91
2023-11-30T02:37:13.274Z,99756.94
2023-11-30T02:39:43.445Z,99754.25
2023-11-30T02:42:13.651Z,99756.09
2023-11-30T02:44:43.720Z,99749.44
2023-11-30T02:47:13.798Z,99759.19
2023-11-30T02:49:43.952Z,99752.44
2023-11-30T02:52:16.669Z,99756.91
2023-11-30T02:54:47.475Z,99759.75
2023-11-30T02:57:17.929Z,99764.31
2023-11-30T02:59:48.189Z,99771.38
2023-11-30T03:02:19.016Z,99762.00
2023-11-30T03:04:49.514Z,99762.84
2023-11-30T03:07:22.218Z,99770.63
2023-11-30T03:09:52.353Z,99768.78
2023-11-30T03:12:22.670Z,99765.97
2023-11-30T03:14:52.824Z,99768.47
2023-11-30T03:17:22.920Z,99761.53
2023-11-30T03:19:53.024Z,99756.28
2023-11-30T03:22:25.774Z,99754.66
2023-11-30T03:24:56.015Z,99751.34
2023-11-30T03:27:26.343Z,99753.22
2023-11-30T03:29:56.467Z,99756.81
2023-11-30T03:32:26.673Z,99757.97
2023-11-30T03:34:56.919Z,99760.75
2023-11-30T03:37:29.785Z,99761.78
2023-11-30T03:39:59.888Z,99750.66
2023-11-30T03:42:30.132Z,99746.59
2023-11-30T03:45:00.435Z,99749.28
2023-11-30T03:47:30.610Z,99747.72
2023-11-30T03:50:00.695Z,99747.00
2023-11-30T03:52:33.459Z,99754.03
2023-11-30T03:55:04.037Z,99746.53
2023-11-30T03:57:35.107Z,99747.53
2023-11-30T04:00:08.658Z,99750.25
2023-11-30T04:02:38.843Z,99745.25
2023-11-30T04:05:10.529Z,99743.69
2023-11-30T04:07:44.805Z,99752.47
2023-11-30T04:10:15.789Z,99743.03
2023-11-30T04:12:45.918Z,99747.50
2023-11-30T04:15:16.059Z,99745.72
2023-11-30T04:17:46.192Z,99742.41
2023-11-30T04:20:16.470Z,99743.41
2023-11-30T04:22:49.422Z,99750.56
2023-11-30T04:25:20.429Z,99749.09
2023-11-30T04:27:50.689Z,99750.09
2023-11-30T04:30:20.868Z,99745.94
2023-11-30T04:32:51.699Z,99746.97
2023-11-30T04:35:21.860Z,99754.00
2023-11-30T04:37:54.656Z,99749.16
2023-11-30T04:40:25.453Z,99756.19
2023-11-30T04:42:55.523Z,99756.47
2023-11-30T04:45:25.636Z,99751.50
2023-11-30T04:47:55.937Z,99744.75
2023-11-30T04:50:26.079Z,99749.28
2023-11-30T04:52:58.894Z,99753.63
2023-11-30T04:55:29.023Z,99752.06
2023-11-30T04:57:59.148Z,99749.66
2023-11-30T05:00:29.311Z,99749.00
2023-11-30T05:02:59.606Z,99753.44
2023-11-30T05:05:30.095Z,99747.53
2023-11-30T05:08:03.011Z,99746.00
2023-11-30T05:10:33.158Z,99759.88
2023-11-30T05:13:03.393Z,99754.78
2023-11-30T05:15:33.498Z,99760.91
2023-11-30T05:18:03.713Z,99761.81
2023-11-30T05:20:33.929Z,99761.91
2023-11-30T05:23:06.665Z,99766.53
2023-11-30T05:25:36.930Z,99771.81
2023-11-30T05:28:07.808Z,99777.16
2023-11-30T05:30:38.174Z,99778.34
2023-11-30T05:33:08.573Z,99782.31
2023-11-30T05:35:39.901Z,99781.91
2023-11-30T05:38:12.591Z,99784.94
2023-11-30T05:40:42.702Z,99784.38
2023-11-30T05:43:12.778Z,99787.22
2023-11-30T05:45:43.106Z,99783.13
2023-11-30T05:48:13.423Z,99786.66
2023-11-30T05:50:43.733Z,99791.16
2023-11-30T05:53:16.439Z,99787.84
2023-11-30T05:55:46.516Z,99793.00
2023-11-30T05:58:16.633Z,99799.59
2023-11-30T06:00:47.069Z,99794.22
2023-11-30T06:03:17.310Z,99789.88
2023-11-30T06:05:47.588Z,99792.22
2023-11-30T06:08:20.291Z,99798.69
2023-11-30T06:10:50.493Z,99790.59
2023-11-30T06:13:20.587Z,99801.53
2023-11-30T06:15:50.767Z,99792.09
2023-11-30T06:18:21.126Z,99798.94
2023-11-30T06:20:54.286Z,99808.38
2023-11-30T06:23:26.967Z,99807.47
2023-11-30T06:25:57.181Z,99809.78
2023-11-30T06:28:29.579Z,99814.78
2023-11-30T06:30:59.719Z,99820.78
2023-11-30T06:33:30.083Z,99818.84
2023-11-30T06:36:00.336Z,99811.47
2023-11-30T06:38:33.310Z,99819.25
2023-11-30T06:41:06.901Z,99821.53
2023-11-30T06:43:37.262Z,99822.53
2023-11-30T06:46:08.478Z,99830.47
2023-11-30T06:48:38.620Z,99822.72
2023-11-30T06:51:10.936Z,99828.03
2023-11-30T06:53:43.662Z,99828.03
2023-11-30T06:56:16.880Z,99825.44
2023-11-30T06:58:47.058Z,99821.84
2023-11-30T07:01:17.517Z,99820.88
2023-11-30T07:03:47.708Z,99825.78
2023-11-30T07:06:17.954Z,99827.34
2023-11-30T07:08:50.726Z,99821.97
2023-11-30T07:11:20.930Z,99833.91
2023-11-30T07:13:51.205Z,99833.19
2023-11-30T07:16:21.443Z,99835.13
2023-11-30T07:18:53.125Z,99837.63
2023-11-30T07:21:23.274Z,99837.63
2023-11-30T07:23:56.048Z,99839.94
2023-11-30T07:26:26.194Z,99839.75
2023-11-30T07:28:56.524Z,99833.94
2023-11-30T07:31:26.668Z,99845.97
2023-11-30T07:33:56.822Z,99840.56
2023-11-30T07:36:26.908Z,99854.19
2023-11-30T07:38:59.582Z,99842.31
2023-11-30T07:41:29.743Z,99842.34
2023-11-30T07:43:59.917Z,99851.16
2023-11-30T07:46:30.545Z,99855.19
2023-11-30T07:49:00.649Z,99857.75
2023-11-30T07:51:30.762Z,99862.16
2023-11-30T07:54:04.012Z,99868.75
2023-11-30T07:56:34.271Z,99861.38
2023-11-30T07:59:04.653Z,99861.03
2023-11-30T08:01:34.809Z,99864.84
2023-11-30T08:04:05.130Z,99869.56
2023-11-30T08:06:35.443Z,99869.75
2023-11-30T08:09:09.646Z,99874.19
2023-11-30T08:11:40.973Z,99884.66
2023-11-30T08:14:11.284Z,99883.94
2023-11-30T08:16:41.972Z,99879.75
2023-11-30T08:19:12.797Z,99879.56
2023-11-30T08:21:44.405Z,99876.97
2023-11-30T08:24:17.135Z,99880.50
2023-11-30T08:26:48.187Z,99876.34
2023-11-30T08:29:18.572Z,99875.50
2023-11-30T08:31:48.646Z,99874.78
2023-11-30T08:34:18.790Z,99872.19
2023-11-30T08:36:48.846Z,99879.13
2023-11-30T08:39:25.297Z,99879.13
2023-11-30T08:42:05.225Z,99876.25
2023-11-30T08:44:36.851Z,99871.41
2023-11-30T08:47:15.027Z,99870.97
2023-11-30T08:49:47.244Z,99873.25
2023-11-30T08:52:17.653Z,99867.69
2023-11-30T08:54:50.450Z,99868.22
2023-11-30T08:57:21.146Z,99871.16
2023-11-30T08:59:52.251Z,99867.53
2023-11-30T09:02:25.664Z,99870.97
2023-11-30T09:04:55.944Z,99866.81
2023-11-30T09:07:26.312Z,99878.56
2023-11-30T09:09:59.694Z,99874.97
2023-11-30T09:12:29.957Z,99869.56
2023-11-30T09:15:00.778Z,99870.13
2023-11-30T09:17:31.154Z,99871.69
2023-11-30T09:20:01.279Z,99867.94
2023-11-30T09:22:31.518Z,99870.25
2023-11-30T09:25:09.284Z,99879.41
2023-11-30T09:27:39.485Z,99876.41
2023-11-30T09:30:13.823Z,99871.56
2023-11-30T09:32:44.179Z,99871.91
2023-11-30T09:35:15.986Z,99872.22
2023-11-30T09:37:47.316Z,99862.34
2023-11-30T09:40:21.386Z,99855.81
2023-11-30T09:42:51.692Z,99857.38
2023-11-30T09:45:24.178Z,99849.28
2023-11-30T09:47:54.424Z,99849.91
2023-11-30T09:50:24.661Z,99849.50
2023-11-30T09:52:55.239Z,99846.47
2023-11-30T09:55:30.515Z,99845.44
2023-11-30T09:58:05.574Z,99844.72
2023-11-30T10:00:35.926Z,99838.06
2023-11-30T10:03:07.232Z,99837.84
2023-11-30T10:05:37.424Z,99840.13
2023-11-30T10:08:08.026Z,99828.69
2023-11-30T10:10:42.866Z,99835.34
2023-11-30T10:13:13.201Z,99832.44
2023-11-30T10:15:44.410Z,99836.59
2023-11-30T10:18:15.088Z,99829.84
2023-11-30T10:20:45.240Z,99825.34
2023-11-30T10:23:16.663Z,99821.94
2023-11-30T10:25:51.294Z,99822.03
2023-11-30T10:28:24.863Z,99814.97
2023-11-30T10:30:57.344Z,99819.50
2023-11-30T10:33:28.394Z,99816.47
2023-11-30T10:36:03.196Z,99812.28
2023-11-30T10:38:39.876Z,99809.34
2023-11-30T10:41:22.699Z,99810.50
2023-11-30T10:43:59.840Z,99808.47
2023-11-30T10:46:34.794Z,99797.84
2023-11-30T10:49:07.929Z,99801.56
2023-11-30T10:51:38.982Z,99803.13
2023-11-30T10:54:17.701Z,99795.09
2023-11-30T10:56:51.164Z,99800.31
2023-11-30T10:59:21.245Z,99800.34
2023-11-30T11:01:51.792Z,99799.56
2023-11-30T11:04:24.461Z,99799.34
2023-11-30T11:07:04.426Z,99800.06
2023-11-30T11:09:44.760Z,99792.16
2023-11-30T11:12:26.743Z,99788.69
2023-11-30T11:15:14.335Z,99787.84
2023-11-30T11:17:51.000Z,99783.75
2023-11-30T11:20:26.624Z,99780.44
2023-11-30T11:22:58.148Z,99778.63
2023-11-30T11:25:29.265Z,99767.50
2023-11-30T11:28:02.074Z,99773.91
2023-11-30T11:30:35.728Z,99763.72
2023-11-30T11:33:06.506Z,99762.00
2023-11-30T11:35:36.630Z,99759.31
2023-11-30T11:38:08.667Z,99753.50
2023-11-30T11:40:42.379Z,99755.22
2023-11-30T11:43:15.195Z,99752.03
2023-11-30T11:45:45.401Z,99752.13
2023-11-30T11:48:15.879Z,99752.59
2023-11-30T11:50:46.361Z,99755.97
2023-11-30T11:53:16.452Z,99748.28
2023-11-30T11:55:46.695Z,99744.69
2023-11-30T11:58:19.758Z,99738.31
2023-11-30T12:00:56.696Z,99742.25
2023-11-30T12:03:29.859Z,99737.34
2023-11-30T12:06:00.760Z,99734.25
2023-11-30T12:08:36.551Z,99728.91
2023-11-30T12:11:09.149Z,99724.84
2023-11-30T12:13:41.856Z,99719.09
2023-11-30T12:16:12.957Z,99727.09
2023-11-30T12:18:43.379Z,99723.00
2023-11-30T12:21:13.627Z,99718.31
2023-11-30T12:23:43.758Z,99718.47
2023-11-30T12:26:14.031Z,99720.88
2023-11-30T12:28:46.752Z,99714.06
2023-11-30T12:31:16.943Z,99718.88
2023-11-30T12:33:48.800Z,99718.56
2023-11-30T12:36:23.659Z,99720.63
2023-11-30T12:38:53.818Z,99720.63
2023-11-30T12:41:23.903Z,99729.53
2023-11-30T12:43:57.350Z,99724.66
2023-11-30T12:46:27.523Z,99727.88
2023-11-30T12:48:57.977Z,99729.59
2023-11-30T12:51:28.444Z,99736.13
2023-11-30T12:53:58.544Z,99732.00
2023-11-30T12:56:29.059Z,99736.78
2023-11-30T12:59:02.166Z,99744.91
2023-11-30T13:01:35.065Z,99751.91
2023-11-30T13:04:05.516Z,99750.44
2023-11-30T13:06:36.566Z,99751.19
2023-11-30T13:09:08.511Z,99752.69
2023-11-30T13:11:39.679Z,99752.69
2023-11-30T13:14:12.743Z,99758.22
2023-11-30T13:16:42.903Z,99764.13
2023-11-30T13:19:13.329Z,99762.97
2023-11-30T13:21:43.559Z,99766.13
2023-11-30T13:24:13.761Z,99768.00
2023-11-30T13:26:43.920Z,99767.66
2023-11-30T13:29:16.840Z,99765.63
2023-11-30T13:31:48.091Z,99762.47
2023-11-30T13:34:18.359Z,99769.78
2023-11-30T13:36:48.948Z,99766.06
2023-11-30T13:39:19.226Z,99768.16
2023-11-30T13:41:49.766Z,99773.91
2023-11-30T13:44:22.668Z,99769.50
2023-11-30T13:46:53.621Z,99774.28
2023-11-30T13:49:24.413Z,99768.97
2023-11-30T13:51:56.167Z,99764.47
2023-11-30T13:54:26.371Z,99764.00
2023-11-30T13:56:56.481Z,99770.19
2023-11-30T13:59:29.396Z,99768.75
2023-11-30T14:01:59.567Z,99764.97
2023-11-30T14:04:29.671Z,99774.09
2023-11-30T14:07:00.611Z,99774.69
2023-11-30T14:09:30.879Z,99764.88
2023-11-30T14:12:01.125Z,99768.78
2023-11-30T14:14:33.928Z,99773.75
2023-11-30T14:17:05.179Z,99783.00
2023-11-30T14:19:37.080Z,99770.78
2023-11-30T14:22:09.817Z,99773.97
2023-11-30T14:24:40.093Z,99768.72
2023-11-30T14:27:10.788Z,99776.53
2023-11-30T14:29:43.614Z,99776.38
2023-11-30T14:32:13.894Z,99777.09
2023-11-30T14:34:46.131Z,99770.63
2023-11-30T14:37:17.609Z,99772.03
2023-11-30T14:39:48.049Z,99769.78
2023-11-30T14:42:18.203Z,99767.63
2023-11-30T14:44:54.092Z,99777.66
2023-11-30T14:47:27.190Z,99775.50
2023-11-30T14:49:57.301Z,99771.66
2023-11-30T14:52:27.518Z,99769.63
2023-11-30T14:54:57.648Z,99766.63
2023-11-30T14:57:27.807Z,99767.91
2023-11-30T15:00:02.314Z,99769.06
2023-11-30T15:02:32.491Z,99775.44
2023-11-30T15:05:02.794Z,99773.16
2023-11-30T15:07:33.430Z,99779.41
2023-11-30T15:10:05.559Z,99773.69
2023-11-30T15:12:37.396Z,99779.34
2023-11-30T15:15:15.158Z,99781.53
2023-11-30T15:17:49.561Z,99786.34
2023-11-30T15:20:20.438Z,99784.19
2023-11-30T15:22:52.424Z,99783.63
2023-11-30T15:25:22.598Z,99778.88
2023-11-30T15:27:52.822Z,99784.50
2023-11-30T15:30:26.910Z,99787.63
2023-11-30T15:32:57.148Z,99781.91
2023-11-30T15:35:29.159Z,99780.56
2023-11-30T15:37:59.990Z,99776.59
2023-11-30T15:40:30.551Z,99775.16
2023-11-30T15:43:00.892Z,99775.47
2023-11-30T15:45:33.832Z,99782.63
2023-11-30T15:48:04.925Z,99784.59
2023-11-30T15:50:35.760Z,99781.59
2023-11-30T15:53:06.234Z,99782.75
2023-11-30T15:55:36.370Z,99783.16
2023-11-30T15:58:07.055Z,99786.88
2023-11-30T16:00:39.985Z,99786.22
2023-11-30T16:03:12.681Z,99782.19
2023-11-30T16:05:43.345Z,99790.16
2023-11-30T16:08:13.517Z,99789.53
2023-11-30T16:10:43.642Z,99783.72
2023-11-30T16:13:13.863Z,99781.34
2023-11-30T16:15:46.598Z,99787.66
2023-11-30T16:18:16.915Z,99777.59
2023-11-30T16:20:50.054Z,99779.44
2023-11-30T16:23:20.249Z,99783.19
2023-11-30T16:25:51.007Z,99778.16
2023-11-30T16:28:21.255Z,99785.22
2023-11-30T16:30:57.662Z,99783.75
2023-11-30T16:33:28.778Z,99791.00
2023-11-30T16:35:58.916Z,99786.13
2023-11-30T16:38:28.943Z,99793.38
2023-11-30T16:40:59.118Z,99790.97
2023-11-30T16:43:32.592Z,99786.72
2023-11-30T16:46:07.497Z,99780.78
2023-11-30T16:48:38.189Z,99780.97
2023-11-30T16:51:10.818Z,99778.59
2023-11-30T16:53:41.001Z,99776.16
2023-11-30T16:56:13.860Z,99778.03
2023-11-30T16:58:44.027Z,99781.53
2023-11-30T17:01:16.878Z,99783.41
2023-11-30T17:03:47.429Z,99787.03
2023-11-30T17:06:20.950Z,99779.44
2023-11-30T17:08:53.005Z,99780.47
2023-11-30T17:11:23.163Z,99786.78
2023-11-30T17:13:53.264Z,99783.56
2023-11-30T17:16:28.206Z,99779.38
2023-11-30T17:18:58.591Z,99786.34
2023-11-30T17:21:28.815Z,99788.09
2023-11-30T17:23:59.773Z,99783.09
2023-11-30T17:26:29.917Z,99788.47
2023-11-30T17:29:02.922Z,99786.09
2023-11-30T17:31:36.229Z,99787.00
2023-11-30T17:34:06.621Z,99788.69
2023-11-30T17:36:36.842Z,99785.34
2023-11-30T17:39:07.320Z,99785.41
2023-11-30T17:41:42.490Z,99784.69
2023-11-30T17:44:12.794Z,99790.06
2023-11-30T17:46:46.375Z,99783.19
2023-11-30T17:49:23.845Z,99782.56
2023-11-30T17:51:54.166Z,99782.75
2023-11-30T17:54:24.421Z,99782.22
2023-11-30T17:56:54.572Z,99784.25
2023-11-30T17:59:24.925Z,99778.31
2023-11-30T18:01:57.819Z,99785.38
2023-11-30T18:04:28.078Z,99785.56
2023-11-30T18:06:58.251Z,99784.91
2023-11-30T18:09:28.468Z,99786.66
2023-11-30T18:11:58.845Z,99784.22
2023-11-30T18:14:32.781Z,99784.41
2023-11-30T18:17:06.641Z,99778.59
2023-11-30T18:19:37.781Z,99783.13
2023-11-30T18:22:08.174Z,99778.13
2023-11-30T18:24:38.535Z,99781.75
2023-11-30T18:27:08.835Z,99783.50
2023-11-30T18:29:39.105Z,99783.50
2023-11-30T18:32:13.032Z,99782.75
2023-11-30T18:34:43.299Z,99783.69
2023-11-30T18:37:13.397Z,99785.53
2023-11-30T18:39:43.564Z,99782.13
2023-11-30T18:42:13.781Z,99777.94
2023-11-30T18:44:43.881Z,99770.38
2023-11-30T18:47:17.736Z,99781.56
2023-11-30T18:49:49.286Z,99777.31
2023-11-30T18:52:19.570Z,99780.91
2023-11-30T18:54:52.421Z,99777.50
2023-11-30T18:57:22.678Z,99781.00
2023-11-30T18:59:52.781Z,99775.91
2023-11-30T19:02:25.654Z,99777.75
2023-11-30T19:04:56.731Z,99776.94
2023-11-30T19:07:26.915Z,99777.00
2023-11-30T19:09:57.120Z,99779.75
2023-11-30T19:12:27.203Z,99779.94
2023-11-30T19:14:57.375Z,99779.13
2023-11-30T19:17:30.175Z,99785.97
2023-11-30T19:20:00.319Z,99785.13
2023-11-30T19:22:30.390Z,99792.81
2023-11-30T19:25:01.184Z,99791.13
2023-11-30T19:27:31.373Z,99788.47
2023-11-30T19:30:01.791Z,99788.47
2023-11-30T19:32:34.767Z,99796.22
2023-11-30T19:35:05.164Z,99796.97
2023-11-30T19:37:35.303Z,99793.53
2023-11-30T19:40:07.034Z,99802.16
2023-11-30T19:42:37.130Z,99791.03
2023-11-30T19:45:08.688Z,99788.47
2023-11-30T19:47:41.721Z,99791.97
2023-11-30T19:50:13.313Z,99786.06
2023-11-30T19:52:44.054Z,99776.81
2023-11-30T19:55:14.162Z,99775.22
2023-11-30T19:57:44.330Z,99774.41
2023-11-30T20:00:16.422Z,99779.56
2023-11-30T20:02:49.384Z,99785.75
2023-11-30T20:05:19.622Z,99781.69
2023-11-30T20:07:49.805Z,99784.38
2023-11-30T20:10:20.612Z,99778.44
2023-11-30T20:12:53.657Z,99772.53
2023-11-30T20:15:24.097Z,99771.03
2023-11-30T20:17:56.810Z,99775.47
2023-11-30T20:20:27.002Z,99773.06
2023-11-30T20:22:57.174Z,99774.13
2023-11-30T20:25:27.296Z,99782.16
2023-11-30T20:27:57.584Z,99777.25
2023-11-30T20:30:29.339Z,99788.53
2023-11-30T20:33:02.334Z,99776.69
2023-11-30T20:35:33.571Z,99777.88
2023-11-30T20:38:03.930Z,99788.66
2023-11-30T20:40:34.162Z,99784.66
2023-11-30T20:43:05.279Z,99785.81
2023-11-30T20:45:35.568Z,99793.75
2023-11-30T20:48:08.630Z,99794.84
2023-11-30T20:50:39.210Z,99796.84
2023-11-30T20:53:09.251Z,99794.53
2023-11-30T20:55:39.461Z,99798.38
2023-11-30T20:58:09.762Z,99798.72
2023-11-30T21:00:39.924Z,99791.16
2023-11-30T21:03:12.716Z,99800.84
2023-11-30T21:05:42.869Z,99810.53
2023-11-30T21:08:13.070Z,99800.34
2023-11-30T21:10:43.170Z,99801.75
2023-11-30T21:13:13.252Z,99803.50
2023-11-30T21:15:43.402Z,99803.59
2023-11-30T21:18:16.481Z,99804.59
2023-11-30T21:20:46.557Z,99794.34
2023-11-30T21:23:16.752Z,99797.00
2023-11-30T21:25:46.941Z,99803.94
2023-11-30T21:28:17.326Z,99804.19
2023-11-30T21:30:48.099Z,99799.09
2023-11-30T21:33:20.973Z,99805.19
2023-11-30T21:35:51.092Z,99801.00
2023-11-30T21:38:21.247Z,99806.34
2023-11-30T21:40:51.637Z,99803.84
2023-11-30T21:43:21.696Z,99804.84
2023-11-30T21:45:52.011Z,99804.09
2023-11-30T21:51:09.623Z,99807.88
2023-11-30T21:53:39.742Z,99806.38
2023-11-30T21:56:12.459Z,99804.88
2023-11-30T21:58:42.530Z,99810.88
2023-11-30T22:01:12.681Z,99816.97
2023-11-30T22:03:45.603Z,99819.63
2023-11-30T22:06:17.012Z,99830.13
2023-11-30T22:08:51.639Z,99824.34
2023-11-30T22:11:21.875Z,99818.44
2023-11-30T22:13:51.906Z,99813.44
2023-11-30T22:16:26.547Z,99819.44
2023-11-30T22:19:07.302Z,99820.41
2023-11-30T22:21:37.746Z,99818.75
2023-11-30T22:24:08.747Z,99829.09
2023-11-30T22:26:38.949Z,99826.50
2023-11-30T22:29:09.156Z,99830.75
2023-11-30T22:31:39.603Z,99824.91
2023-11-30T22:34:12.686Z,99837.91
2023-11-30T22:36:46.417Z,99837.91
2023-11-30T22:39:19.395Z,99829.31
2023-11-30T22:41:50.892Z,99824.16
2023-11-30T22:44:22.313Z,99818.00
2023-11-30T22:46:52.582Z,99815.25
2023-11-30T22:49:25.284Z,99817.69
2023-11-30T22:51:58.097Z,99818.28
2023-11-30T22:54:31.514Z,99828.44
2023-11-30T22:57:01.692Z,99823.13
2023-11-30T22:59:31.966Z,99821.28
2023-11-30T23:02:04.532Z,99823.78
2023-11-30T23:04:38.384Z,99817.72
2023-11-30T23:07:10.531Z,99823.63
2023-11-30T23:09:42.131Z,99826.13
2023-11-30T23:12:13.383Z,99832.97
2023-11-30T23:14:43.721Z,99821.88
2023-11-30T23:17:13.880Z,99818.53
2023-11-30T23:20:04.611Z,99816.97
2023-11-30T23:22:46.817Z,99825.78
2023-11-30T23:25:17.504Z,99824.13
2023-11-30T23:27:47.693Z,99825.28
2023-11-30T23:30:21.068Z,99828.94
2023-11-30T23:32:53.207Z,99835.91
2023-11-30T23:35:26.267Z,99827.50
2023-11-30T23:38:00.798Z,99830.22
2023-11-30T23:40:49.745Z,99839.84
2023-11-30T23:43:29.605Z,99830.44
2023-11-30T23:45:59.823Z,99829.69
2023-11-30T23:48:38.858Z,99830.69
2023-11-30T23:51:18.896Z,99829.00
2023-11-30T23:53:50.345Z,99827.25
2023-11-30T23:56:20.498Z,99830.84
2023-11-30T23:58:50.996Z,99829.25
